Time;durP1;ratioP1;P1;durP2;ratioP2;P2;SDS_P1;SDS_P2;PMS_P1;PMS_P2;Temp;Humidity;BMP_temperature;BMP_pressure;BME280_temperature;BME280_humidity;BME280_pressure;Samples;Min_cycle;Max_cycle;Signal;HPM_P1;HPM_P2
2022/03/29 00:07:16;;;;;;;14.27;7.03;;;;;;;7.51;57.09;100343.06;18304825;32;20485;-65
2022/03/29 00:17:21;;;;;;;15.75;7.18;;;;;;;7.45;57.03;100333.50;18305033;32;20116;-64
2022/03/29 00:27:24;;;;;;;12.40;6.80;;;;;;;7.52;56.35;100331.81;18304713;32;20093;-65
2022/03/29 00:37:29;;;;;;;14.00;5.60;;;;;;;7.45;56.80;100320.50;18304397;32;20433;-64
2022/03/29 00:47:33;;;;;;;11.52;5.93;;;;;;;7.04;57.63;100303.66;18303441;32;20089;-65
2022/03/29 00:57:38;;;;;;;13.13;7.53;;;;;;;6.96;57.87;100292.31;18303579;32;20113;-64
2022/03/29 01:07:41;;;;;;;9.52;5.60;;;;;;;6.65;59.51;100276.41;18304123;32;20101;-65
2022/03/29 01:17:47;;;;;;;9.65;5.43;;;;;;;6.49;59.98;100268.44;18303178;32;20112;-65
2022/03/29 01:27:52;;;;;;;9.35;5.10;;;;;;;6.71;59.51;100266.09;18302303;32;20148;-64
2022/03/29 01:37:56;;;;;;;12.10;5.80;;;;;;;6.34;58.35;100250.06;18301973;32;20090;-64
2022/03/29 01:48:01;;;;;;;10.38;5.40;;;;;;;6.37;59.17;100221.62;18301582;32;20124;-64
2022/03/29 01:58:04;;;;;;;12.20;6.50;;;;;;;6.69;59.73;100217.63;18300486;32;20113;-64
2022/03/29 02:08:08;;;;;;;13.07;5.82;;;;;;;6.68;59.72;100203.81;18308800;32;20108;-64
2022/03/29 02:18:12;;;;;;;10.25;5.18;;;;;;;6.72;58.10;100179.63;18308150;32;20090;-64
2022/03/29 02:28:17;;;;;;;14.10;6.07;;;;;;;6.18;59.74;100176.44;18307715;32;20112;-64
2022/03/29 02:38:20;;;;;;;11.15;6.35;;;;;;;6.46;58.61;100162.09;18307582;32;20357;-64
2022/03/29 02:48:25;;;;;;;10.27;4.97;;;;;;;6.14;59.50;100166.91;18307375;32;20117;-64
2022/03/29 02:58:28;;;;;;;10.50;5.22;;;;;;;6.13;60.20;100170.34;18307112;32;20105;-65
2022/03/29 03:08:33;;;;;;;12.10;5.35;;;;;;;6.31;60.78;100162.78;18306797;32;20183;-64
2022/03/29 03:18:36;;;;;;;12.90;5.80;;;;;;;6.31;60.46;100156.72;18306274;32;20367;-64
2022/03/29 03:28:41;;;;;;;15.30;5.70;;;;;;;6.05;61.47;100155.56;18306055;32;20394;-64
2022/03/29 03:38:44;;;;;;;10.85;6.03;;;;;;;6.18;61.50;100148.81;18305978;32;20112;-65
2022/03/29 03:48:49;;;;;;;14.30;6.45;;;;;;;6.12;61.21;100135.75;18305847;32;20094;-64
2022/03/29 03:58:52;;;;;;;10.45;5.40;;;;;;;5.78;62.32;100137.88;18305581;32;20102;-64
2022/03/29 04:08:56;;;;;;;12.27;5.95;;;;;;;5.62;62.92;100139.41;18305270;32;20116;-65
2022/03/29 04:18:59;;;;;;;10.90;5.10;;;;;;;5.59;62.46;100145.41;18305032;32;20098;-65
2022/03/29 04:29:04;;;;;;;9.93;5.45;;;;;;;5.63;62.95;100139.44;18304587;32;20366;-64
2022/03/29 04:39:07;;;;;;;10.32;5.37;;;;;;;5.53;62.87;100129.81;18304582;32;20439;-64
2022/03/29 04:49:12;;;;;;;15.77;6.12;;;;;;;5.09;64.12;100116.22;18304247;32;20097;-64
2022/03/29 04:59:15;;;;;;;40.20;8.35;;;;;;;5.59;63.01;100122.09;18303934;32;20104;-65
2022/03/29 05:09:20;;;;;;;19.90;7.97;;;;;;;5.86;62.51;100112.97;18300703;32;20379;-65
2022/03/29 05:19:23;;;;;;;21.35;11.68;;;;;;;5.51;63.31;100100.44;18299834;32;20133;-65
2022/03/29 05:29:30;;;;;;;19.67;7.40;;;;;;;6.12;61.96;100099.47;18301865;32;20113;-65
2022/03/29 05:39:33;;;;;;;13.50;6.75;;;;;;;7.24;59.94;100095.28;18305857;32;20098;-64
2022/03/29 05:49:39;;;;;;;21.60;9.63;;;;;;;9.11;54.98;100093.22;18308902;32;20427;-64
2022/03/29 05:59:43;;;;;;;21.12;9.88;;;;;;;11.21;50.60;100098.22;18306555;32;20074;-66
2022/03/29 06:09:48;;;;;;;22.85;9.90;;;;;;;14.07;44.90;100079.00;18303310;32;20147;-66
2022/03/29 06:19:51;;;;;;;16.70;8.45;;;;;;;17.26;38.27;100068.34;18306710;32;20097;-66
2022/03/29 06:29:57;;;;;;;14.85;7.72;;;;;;;18.85;34.21;100070.22;18308360;32;20181;-66
2022/03/29 06:40:00;;;;;;;13.88;6.95;;;;;;;19.52;31.34;100055.00;18307857;32;20086;-65
2022/03/29 06:50:07;;;;;;;13.07;7.12;;;;;;;19.96;30.66;100042.47;18306580;32;20093;-66
2022/03/29 07:00:13;;;;;;;13.32;6.93;;;;;;;19.87;31.04;100043.72;18268143;32;20105;-63
2022/03/29 07:20:38;;;;;;;15.45;8.07;;;;;;;18.47;34.14;100043.59;18305160;32;20124;-65
2022/03/29 07:30:43;;;;;;;15.27;7.20;;;;;;;18.55;33.27;100037.06;18306198;32;20413;-65
2022/03/29 07:40:47;;;;;;;17.75;8.02;;;;;;;20.70;29.59;100018.59;18306260;32;20152;-66
2022/03/29 07:50:51;;;;;;;15.95;8.65;;;;;;;22.47;27.50;100014.41;18306020;32;20145;-66
2022/03/29 08:00:55;;;;;;;22.13;8.00;;;;;;;20.95;29.46;100007.59;18296702;32;20121;-66
2022/03/29 08:10:59;;;;;;;18.48;8.90;;;;;;;20.79;30.17;100005.69;18283177;32;20439;-66
2022/03/29 08:21:47;;;;;;;15.35;8.65;;;;;;;20.42;30.17;100001.41;18302449;32;20107;-66
2022/03/29 08:31:27;;;;;;;18.67;8.15;;;;;;;19.76;31.58;100003.63;18303593;32;20093;-63
2022/03/29 08:41:36;;;;;;;19.10;9.90;;;;;;;20.12;30.87;99984.28;18304454;32;20097;-66
2022/03/29 08:51:42;;;;;;;15.48;8.73;;;;;;;21.16;29.05;99976.44;18304034;32;20115;-66
2022/03/29 09:01:45;;;;;;;18.67;8.80;;;;;;;20.99;29.41;99965.84;18302062;32;20080;-66
2022/03/29 09:11:50;;;;;;;18.65;8.73;;;;;;;21.86;27.60;99948.78;18301900;32;20119;-66
2022/03/29 09:21:55;;;;;;;19.87;9.43;;;;;;;22.20;26.15;99940.66;18302247;32;20116;-66
2022/03/29 09:32:06;;;;;;;19.12;8.60;;;;;;;22.69;26.25;99918.25;18301578;32;20101;-66
2022/03/29 09:42:11;;;;;;;16.60;7.07;;;;;;;24.87;22.60;99908.78;18300826;32;20113;-66
2022/03/29 09:52:17;;;;;;;16.70;7.37;;;;;;;25.35;21.48;99900.88;18300761;32;20097;-66
2022/03/29 10:02:20;;;;;;;15.65;6.75;;;;;;;27.30;19.11;99872.84;18299639;32;20867;-66
2022/03/29 10:12:25;;;;;;;12.93;5.75;;;;;;;28.05;17.46;99862.22;18299267;32;20157;-66
2022/03/29 10:22:29;;;;;;;14.75;7.18;;;;;;;25.45;19.10;99831.59;18302537;32;20097;-63
2022/03/29 10:32:33;;;;;;;13.30;5.57;;;;;;;27.72;16.39;99818.53;18307210;32;20144;-66
2022/03/29 10:42:38;;;;;;;11.43;5.40;;;;;;;29.35;14.39;99803.59;18307634;32;20097;-65
2022/03/29 10:52:44;;;;;;;13.68;4.95;;;;;;;28.52;14.32;99793.88;18307228;32;20124;-66
2022/03/29 11:03:20;;;;;;;16.90;5.87;;;;;;;29.29;14.07;99775.44;18306483;32;20406;-66
2022/03/29 11:13:26;;;;;;;13.07;5.90;;;;;;;27.94;15.61;99765.75;18306177;32;20430;-65
2022/03/29 11:23:32;;;;;;;15.30;6.43;;;;;;;26.86;16.08;99737.03;18306799;32;20155;-65
2022/03/29 11:33:37;;;;;;;16.17;6.43;;;;;;;25.85;16.36;99741.41;18305056;32;20082;-65
2022/03/29 11:43:40;;;;;;;14.48;6.47;;;;;;;26.53;15.78;99725.41;18300020;32;20094;-65
2022/03/29 11:53:45;;;;;;;16.37;6.20;;;;;;;26.18;16.63;99712.97;18302031;32;20098;-65
2022/03/29 12:03:54;;;;;;;12.85;5.93;;;;;;;26.51;15.43;99710.44;18301477;32;20355;-65
2022/03/29 12:14:04;;;;;;;12.35;5.40;;;;;;;25.98;15.98;99682.44;18300091;32;20371;-65
2022/03/29 12:24:10;;;;;;;11.80;5.80;;;;;;;26.33;15.88;99664.63;18284088;32;469857;-65
2022/03/29 12:34:15;;;;;;;13.18;5.93;;;;;;;26.47;15.51;99655.50;18298687;32;20101;-65
2022/03/29 12:44:29;;;;;;;18.98;7.62;;;;;;;26.28;15.34;99639.09;18301904;32;20101;-65
2022/03/29 12:54:36;;;;;;;14.85;6.43;;;;;;;26.06;15.21;99645.25;18301807;32;20474;-65
2022/03/29 13:04:40;;;;;;;13.43;5.05;;;;;;;25.90;14.90;99622.44;18302202;32;20089;-65
2022/03/29 13:14:46;;;;;;;11.70;4.93;;;;;;;25.50;15.38;99622.88;18302744;32;20107;-65
2022/03/29 13:24:49;;;;;;;12.68;5.25;;;;;;;25.13;16.15;99612.31;18303194;32;20093;-64
2022/03/29 13:34:54;;;;;;;12.65;4.53;;;;;;;24.60;16.13;99616.22;18301830;32;20086;-64
2022/03/29 13:44:58;;;;;;;10.68;4.75;;;;;;;24.62;16.21;99607.13;18301310;32;20102;-66
2022/03/29 13:55:05;;;;;;;11.35;4.72;;;;;;;24.75;16.05;99598.22;18286889;32;20138;-65
2022/03/29 14:05:09;;;;;;;10.38;4.78;;;;;;;24.38;16.48;99575.13;18309782;32;20089;-65
2022/03/29 14:15:13;;;;;;;9.73;4.40;;;;;;;24.59;16.24;99564.66;18308906;32;20089;-65
2022/03/29 14:25:36;;;;;;;11.07;4.60;;;;;;;24.88;16.10;99550.13;18307887;32;20105;-67
2022/03/29 14:35:41;;;;;;;13.82;5.37;;;;;;;24.66;16.54;99549.91;18307437;32;20371;-65
2022/03/29 14:45:44;;;;;;;12.27;5.00;;;;;;;24.23;17.61;99539.75;18307316;32;20123;-64
2022/03/29 14:55:49;;;;;;;18.33;7.30;;;;;;;24.01;17.99;99535.13;18306363;32;20120;-65
2022/03/29 15:05:52;;;;;;;11.77;4.60;;;;;;;24.07;18.19;99519.56;18305297;32;20520;-64
2022/03/29 15:15:57;;;;;;;11.27;4.97;;;;;;;24.27;18.22;99513.69;18306972;32;20155;-65
2022/03/29 15:26:00;;;;;;;15.82;6.10;;;;;;;24.15;18.64;99500.31;18306331;32;20123;-64
2022/03/29 15:36:05;;;;;;;11.90;4.82;;;;;;;23.37;19.32;99491.63;18306332;32;20104;-65
2022/03/29 15:46:08;;;;;;;18.58;6.45;;;;;;;23.22;19.61;99494.41;18305949;32;20113;-64
2022/03/29 15:56:13;;;;;;;15.48;7.10;;;;;;;23.30;19.69;99490.37;18305732;32;20487;-64
2022/03/29 16:06:16;;;;;;;12.73;5.37;;;;;;;22.86;20.16;99486.19;18304915;32;20547;-65
2022/03/29 16:16:21;;;;;;;12.55;5.10;;;;;;;22.58;20.48;99482.75;18305234;32;20097;-64
2022/03/29 16:26:25;;;;;;;16.48;7.05;;;;;;;22.28;20.79;99469.66;18303935;32;20355;-64
2022/03/29 16:36:32;;;;;;;10.70;4.95;;;;;;;22.06;21.17;99472.88;18305670;32;20169;-64
2022/03/29 16:46:35;;;;;;;11.77;4.55;;;;;;;21.61;21.37;99466.78;18304524;32;20433;-65
2022/03/29 16:56:41;;;;;;;10.52;4.07;;;;;;;21.43;21.65;99470.59;18303630;32;20116;-65
2022/03/29 17:06:44;;;;;;;11.55;4.60;;;;;;;21.44;21.88;99459.03;18302701;32;20098;-65
2022/03/29 17:16:51;;;;;;;11.45;4.62;;;;;;;20.95;22.74;99441.69;18300458;32;20347;-65
2022/03/29 17:26:58;;;;;;;10.30;3.63;;;;;;;20.33;24.11;99448.81;18301263;32;20120;-65
2022/03/29 17:37:03;;;;;;;7.28;3.15;;;;;;;19.79;24.60;99448.25;18321116;32;20108;-65
2022/03/29 17:47:08;;;;;;;14.18;6.00;;;;;;;18.65;26.83;99449.88;18323534;32;20120;-65
2022/03/29 17:57:13;;;;;;;10.25;3.92;;;;;;;18.20;27.13;99460.00;18321338;32;20144;-65
2022/03/29 18:07:18;;;;;;;53.10;26.50;;;;;;;18.05;27.82;99462.47;18322229;32;20097;-65
2022/03/29 18:17:23;;;;;;;8.70;3.70;;;;;;;17.87;28.46;99472.97;18319839;32;20129;-65
2022/03/29 18:27:27;;;;;;;14.32;6.30;;;;;;;17.34;28.54;99451.63;18319321;32;20111;-65
2022/03/29 18:37:32;;;;;;;13.93;6.22;;;;;;;16.98;30.08;99465.53;18319762;32;20640;-65
2022/03/29 18:47:35;;;;;;;13.18;5.37;;;;;;;16.70;31.15;99471.12;18308492;32;20094;-65
2022/03/29 18:57:41;;;;;;;12.23;4.87;;;;;;;16.53;31.13;99462.13;18307058;32;20110;-65
2022/03/29 19:07:44;;;;;;;13.98;6.45;;;;;;;16.00;31.25;99464.28;18301988;32;20086;-64
2022/03/29 19:17:49;;;;;;;11.82;4.82;;;;;;;15.65;32.62;99464.72;18303813;32;20110;-64
2022/03/29 19:27:54;;;;;;;10.70;3.45;;;;;;;15.78;32.93;99472.12;18305409;32;20153;-65
2022/03/29 19:38:04;;;;;;;11.05;4.85;;;;;;;15.51;33.92;99467.87;18303958;32;20449;-65
2022/03/29 19:48:08;;;;;;;14.35;5.70;;;;;;;15.46;33.76;99454.03;18262518;32;20435;-65
2022/03/29 19:58:14;;;;;;;14.98;5.30;;;;;;;15.25;34.60;99461.81;18240272;32;20094;-65
2022/03/29 20:08:18;;;;;;;13.20;5.72;;;;;;;15.07;34.69;99459.84;18271474;32;20098;-65
2022/03/29 20:18:24;;;;;;;17.77;5.65;;;;;;;14.87;34.71;99452.66;18304565;32;20379;-65
2022/03/29 20:28:27;;;;;;;17.45;7.10;;;;;;;14.59;35.56;99453.59;18302898;32;20460;-65
2022/03/29 20:38:32;;;;;;;16.35;6.72;;;;;;;14.48;36.08;99441.69;18303973;32;20116;-65
2022/03/29 20:48:36;;;;;;;18.67;7.62;;;;;;;14.52;35.93;99432.81;18303034;32;20154;-65
2022/03/29 20:58:41;;;;;;;16.08;5.65;;;;;;;14.56;35.95;99433.56;18302716;32;20112;-65
2022/03/29 21:09:05;;;;;;;16.73;6.78;;;;;;;14.20;36.84;99423.38;18303239;32;20108;-65
2022/03/29 21:19:10;;;;;;;19.35;7.62;;;;;;;14.31;37.23;99415.13;18303030;32;20085;-65
2022/03/29 21:29:13;;;;;;;16.35;7.57;;;;;;;14.25;36.97;99406.56;18302417;32;20410;-65
2022/03/29 21:39:18;;;;;;;17.48;6.80;;;;;;;14.11;37.86;99407.03;18301914;32;20147;-65
2022/03/29 21:49:21;;;;;;;13.70;5.32;;;;;;;13.92;38.35;99403.28;18301243;32;20378;-65
2022/03/29 21:59:26;;;;;;;14.27;5.93;;;;;;;13.72;38.30;99389.03;18300902;32;20196;-65
2022/03/29 22:09:29;;;;;;;11.18;5.47;;;;;;;13.68;38.34;99388.28;18300128;32;20112;-65
2022/03/29 22:19:34;;;;;;;16.25;7.25;;;;;;;13.48;38.70;99390.66;18305046;32;20141;-65
2022/03/29 22:29:37;;;;;;;19.23;6.22;;;;;;;13.70;38.17;99389.06;18309139;32;20105;-65
2022/03/29 22:39:42;;;;;;;13.00;5.80;;;;;;;13.80;38.17;99378.28;18308147;32;20094;-65
2022/03/29 22:49:45;;;;;;;13.30;5.72;;;;;;;13.60;39.35;99379.78;18308013;32;20097;-65
2022/03/29 22:59:51;;;;;;;14.30;6.45;;;;;;;13.52;39.19;99368.66;18308670;32;20102;-65
2022/03/29 23:09:54;;;;;;;15.95;6.57;;;;;;;13.28;40.34;99364.09;18307407;32;20108;-65
2022/03/29 23:20:36;;;;;;;19.08;8.73;;;;;;;13.48;39.32;99359.19;18300590;32;20116;-65
2022/03/29 23:30:57;;;;;;;12.43;5.95;;;;;;;13.79;38.04;99345.94;18307447;32;20089;-65
2022/03/29 23:41:02;;;;;;;13.73;6.07;;;;;;;13.80;39.46;99365.19;18300568;32;20106;-65
2022/03/29 23:51:05;;;;;;;11.80;5.50;;;;;;;13.78;40.67;99373.09;18306259;32;20386;-65
